| time (UTC) | temp C | wind direction | speed KPH | gust KPH | rain 1hr cm | rain 24hr cm | rain mn cm | humidity % | barometer mb |
| 20260903100527 | 22 | 307 | 3.2 | 8.0 | 0.00 | 0.10 | 0.00 | 63 | 1020.3 |
| 20260903095527 | 21 | 346 | 3.2 | 6.4 | 0.00 | 0.10 | 0.00 | 63 | 1020.6 |
| 20260903094139 | 21 | 301 | 1.6 | 6.4 | 0.00 | 0.10 | 0.00 | 66 | 1020.6 |
| 20260903093527 | 20 | 292 | 1.6 | 6.4 | 0.00 | 0.10 | 0.00 | 65 | 1021.1 |
| 20260903091140 | 20 | 324 | 3.2 | 9.7 | 0.00 | 0.10 | 0.00 | 72 | 1021.5 |
| 20260903090527 | 20 | 345 | 3.2 | 9.7 | 0.00 | 0.10 | 0.00 | 70 | 1021.5 |
| 20260903085526 | 20 | 333 | 3.2 | 9.7 | 0.00 | 0.10 | 0.00 | 73 | 1021.7 |
| 20260903084139 | 19 | 310 | 3.2 | 9.7 | 0.00 | 0.10 | 0.00 | 76 | 1021.9 |
| 20260903083527 | 19 | 302 | 4.8 | 9.7 | 0.00 | 0.10 | 0.00 | 76 | 1022.1 |
| 20260903082527 | 18 | 315 | 3.2 | 9.7 | 0.00 | 0.10 | 0.00 | 78 | 1022.1 |
| 20260903081140 | 18 | 323 | 4.8 | 9.7 | 0.00 | 0.10 | 0.00 | 76 | 1022.1 |
| 20260903080527 | 18 | 330 | 4.8 | 8.0 | 0.00 | 0.10 | 0.00 | 80 | 1022.2 |
| 20260903075527 | 18 | 336 | 6.4 | 9.7 | 0.00 | 0.10 | 0.00 | 83 | 1022.3 |
| 20260903074140 | 17 | 319 | 8.0 | 11.3 | 0.00 | 0.10 | 0.00 | 83 | 1022.5 |
| 20260903073526 | 17 | 319 | 6.4 | 11.3 | 0.00 | 0.10 | 0.00 | 83 | 1022.7 |
| 20260903072526 | 17 | 298 | 3.2 | 6.4 | 0.00 | 0.10 | 0.00 | 86 | 1022.7 |
| 20260903071140 | 17 | 343 | 3.2 | 8.0 | 0.00 | 0.10 | 0.00 | 88 | 1022.9 |
| 20260903070527 | 17 | 6 | 3.2 | 6.4 | 0.00 | 0.10 | 0.00 | 89 | 1023.0 |
| 20260903065527 | 16 | 335 | 3.2 | 6.4 | 0.00 | 0.10 | 0.00 | 89 | 1023.1 |
| 20260903064139 | 16 | 340 | 3.2 | 6.4 | 0.00 | 0.10 | 0.00 | 93 | 1023.1 |
| 20260903063526 | 16 | 331 | 4.8 | 6.4 | 0.00 | 0.10 | 0.00 | 93 | 1023.1 |
| 20260903062527 | 15 | 319 | 3.2 | 6.4 | 0.00 | 0.10 | 0.00 | 96 | 1023.1 |
| 20260903061140 | 15 | 339 | 3.2 | 6.4 | 0.00 | 0.10 | 0.00 | 99 | 1023.2 |
| 20260903060527 | 14 | 347 | 3.2 | 6.4 | 0.00 | 0.10 | 0.00 | 100 | 1023.3 |
| 20260903055526 | 14 | 330 | 3.2 | 6.4 | 0.00 | 0.10 | 0.00 | 100 | 1023.3 |
| 20260903054139 | 13 | 279 | 3.2 | 6.4 | 0.00 | 0.10 | 0.00 | 100 | 1023.3 |
| 20260903053526 | 13 | 273 | 1.6 | 4.8 | 0.00 | 0.10 | 0.00 | 100 | 1023.4 |
| 20260903052527 | 13 | 341 | 1.6 | 3.2 | 0.00 | 0.10 | 0.00 | 100 | 1023.5 |
| 20260903051140 | 13 | 269 | 3.2 | 4.8 | 0.00 | 0.10 | 0.00 | 100 | 1023.2 |
| 20260903050526 | 13 | 353 | 1.6 | 4.8 | 0.00 | 0.10 | 0.00 | 100 | 1023.1 |
| 20260903045527 | 13 | 338 | 3.2 | 4.8 | 0.00 | 0.10 | 0.00 | 100 | 1023.1 |
| 20260903044139 | 13 | 261 | 3.2 | 4.8 | 0.00 | 0.10 | 0.00 | 100 | 1023.1 |
| 20260903043526 | 13 | 295 | 3.2 | 4.8 | 0.00 | 0.10 | 0.00 | 100 | 1023.1 |
| 20260903042527 | 13 | 327 | 1.6 | 4.8 | 0.00 | 0.10 | 0.00 | 100 | 1023.1 |
| 20260903041139 | 13 | 287 | 1.6 | 4.8 | 0.00 | 0.10 | 0.00 | 100 | 1022.9 |
| 20260903040527 | 13 | 289 | 3.2 | 6.4 | 0.00 | 0.10 | 0.00 | 100 | 1023.0 |
| 20260903035527 | 13 | 330 | 3.2 | 6.4 | 0.00 | 0.10 | 0.00 | 100 | 1022.9 |
| 20260903034526 | 14 | 276 | 3.2 | 6.4 | 0.00 | 0.10 | 0.00 | 100 | 1022.9 |
| 20260903033527 | 13 | 288 | 1.6 | 6.4 | 0.00 | 0.10 | 0.00 | 100 | 1022.9 |
| 20260903032527 | 14 | 307 | 3.2 | 8.0 | 0.00 | 0.10 | 0.00 | 100 | 1022.9 |
| 20260903031140 | 14 | 285 | 1.6 | 4.8 | 0.00 | 0.10 | 0.00 | 100 | 1022.4 |
| 20260903030527 | 14 | 295 | 3.2 | 4.8 | 0.00 | 0.10 | 0.00 | 100 | 1022.5 |
| 20260903025527 | 15 | 297 | 3.2 | 4.8 | 0.00 | 0.10 | 0.00 | 100 | 1022.7 |
| 20260903024527 | 15 | 337 | 1.6 | 3.2 | 0.00 | 0.10 | 0.00 | 100 | 1022.4 |
| 20260903023527 | 15 | 336 | 3.2 | 4.8 | 0.00 | 0.10 | 0.00 | 99 | 1022.6 |
| 20260903022527 | 15 | 305 | 1.6 | 4.8 | 0.00 | 0.10 | 0.00 | 99 | 1022.6 |
| 20260903021139 | 15 | 238 | 1.6 | 6.4 | 0.00 | 0.10 | 0.00 | 99 | 1022.3 |
| 20260903020527 | 15 | 284 | 3.2 | 6.4 | 0.00 | 0.10 | 0.00 | 99 | 1022.5 |
| 20260903015527 | 15 | 327 | 1.6 | 4.8 | 0.00 | 0.10 | 0.00 | 98 | 1022.5 |
| 20260903014139 | 15 | 278 | 3.2 | 4.8 | 0.00 | 0.10 | 0.00 | 98 | 1022.6 |
| 20260903013526 | 15 | 251 | 3.2 | 6.4 | 0.00 | 0.10 | 0.00 | 98 | 1022.6 |
| 20260903012526 | 15 | 46 | 1.6 | 8.0 | 0.00 | 0.10 | 0.00 | 97 | 1022.6 |
| 20260903011140 | 15 | 341 | 1.6 | 6.4 | 0.00 | 0.10 | 0.00 | 98 | 1022.5 |
| 20260903010527 | 15 | 243 | 1.6 | 6.4 | 0.00 | 0.10 | 0.00 | 98 | 1022.5 |
| 20260903005527 | 15 | 334 | 1.6 | 4.8 | 0.00 | 0.10 | 0.00 | 98 | 1022.3 |
| 20260903004140 | 15 | 4 | 3.2 | 6.4 | 0.00 | 0.10 | 0.00 | 97 | 1022.2 |
| 20260903003527 | 15 | 303 | 3.2 | 4.8 | 0.00 | 0.10 | 0.00 | 96 | 1022.3 |
| 20260903002527 | 15 | 235 | 1.6 | 4.8 | 0.00 | 0.10 | 0.00 | 96 | 1022.1 |
| 20260903001539 | 16 | 244 | 3.2 | 9.7 | 0.00 | 0.10 | 0.00 | 94 | 1022.2 |
| 20260903000527 | 16 | 265 | 3.2 | 8.0 | 0.00 | 0.10 | 0.00 | 94 | 1022.2 |
| 20260902235526 | 15 | 338 | 3.2 | 8.0 | 0.00 | 0.10 | 0.00 | 97 | 1022.1 |
| 20260902234140 | 15 | 350 | 4.8 | 8.0 | 0.00 | 0.10 | 0.00 | 98 | 1022.1 |
| 20260902233526 | 15 | 313 | 4.8 | 8.0 | 0.00 | 0.10 | 0.00 | 98 | 1022.1 |
| 20260902232526 | 16 | 286 | 4.8 | 8.0 | 0.00 | 0.10 | 0.00 | 98 | 1022.1 |
| 20260902231527 | 16 | 256 | 3.2 | 4.8 | 0.00 | 0.10 | 0.00 | 99 | 1022.1 |
| 20260902230526 | 16 | 296 | 3.2 | 3.2 | 0.00 | 0.10 | 0.00 | 99 | 1022.1 |
| 20260902225527 | 16 | 252 | 4.8 | 8.0 | 0.00 | 0.10 | 0.00 | 97 | 1022.0 |
| 20260902224140 | 16 | 221 | 1.6 | 4.8 | 0.00 | 0.10 | 0.00 | 97 | 1021.9 |
| 20260902223527 | 16 | 18 | 4.8 | 9.7 | 0.00 | 0.10 | 0.00 | 96 | 1021.9 |
| 20260902222527 | 16 | 305 | 3.2 | 14.5 | 0.00 | 0.10 | 0.00 | 97 | 1021.9 |
| 20260902221140 | 16 | 276 | 3.2 | 9.7 | 0.00 | 0.10 | 0.00 | 97 | 1021.9 |
| 20260902220526 | 16 | 310 | 4.8 | 9.7 | 0.00 | 0.10 | 0.10 | 97 | 1021.7 |
| 20260902215527 | 16 | 340 | 6.4 | 9.7 | 0.00 | 0.10 | 0.10 | 99 | 1021.6 |
| 20260902214140 | 16 | 282 | 4.8 | 9.7 | 0.00 | 0.10 | 0.10 | 98 | 1021.6 |
| 20260902213526 | 16 | 312 | 3.2 | 6.4 | 0.00 | 0.10 | 0.10 | 99 | 1021.7 |
| 20260902211141 | 16 | 315 | 3.2 | 6.4 | 0.00 | 0.13 | 0.10 | 99 | 1021.8 |
| 20260902210527 | 16 | 311 | 1.6 | 4.8 | 0.00 | 0.18 | 0.10 | 99 | 1021.6 |
| 20260902205527 | 16 | 311 | 4.8 | 6.4 | 0.00 | 0.23 | 0.10 | 100 | 1021.6 |
| 20260902204141 | 16 | 303 | 4.8 | 6.4 | 0.00 | 0.23 | 0.10 | 99 | 1021.5 |
| 20260902203526 | 16 | 313 | 3.2 | 6.4 | 0.05 | 0.23 | 0.10 | 98 | 1021.6 |
| 20260902202527 | 16 | 304 | 1.6 | 4.8 | 0.05 | 0.23 | 0.10 | 96 | 1021.4 |
| 20260902201140 | 16 | 316 | 4.8 | 6.4 | 0.05 | 0.23 | 0.10 | 96 | 1021.3 |
| 20260902200527 | 16 | 352 | 3.2 | 6.4 | 0.05 | 0.23 | 0.10 | 95 | 1021.1 |
| 20260902195527 | 17 | 296 | 3.2 | 11.3 | 0.05 | 0.23 | 0.10 | 90 | 1021.0 |
| 20260902194140 | 16 | 298 | 4.8 | 11.3 | 0.05 | 0.23 | 0.10 | 97 | 1021.1 |
| 20260902193527 | 17 | 18 | 1.6 | 6.4 | 0.05 | 0.23 | 0.10 | 93 | 1020.6 |
| 20260902192526 | 17 | 297 | 3.2 | 8.0 | 0.03 | 0.20 | 0.08 | 92 | 1020.9 |
| 20260902191140 | 17 | 321 | 3.2 | 8.0 | 0.00 | 0.18 | 0.05 | 92 | 1020.9 |
| 20260902190526 | 17 | 314 | 4.8 | 9.7 | 0.00 | 0.18 | 0.05 | 92 | 1020.5 |
| 20260902185527 | 17 | 289 | 3.2 | 6.4 | 0.00 | 0.18 | 0.05 | 90 | 1020.4 |
| 20260902184140 | 17 | 334 | 4.8 | 9.7 | 0.00 | 0.18 | 0.05 | 90 | 1020.1 |
| 20260902183527 | 17 | 308 | 1.6 | 3.2 | 0.00 | 0.18 | 0.05 | 88 | 1019.8 |
| 20260902182527 | 17 | 243 | 3.2 | 9.7 | 0.00 | 0.18 | 0.05 | 88 | 1019.7 |
| 20260902181140 | 18 | 14 | 3.2 | 9.7 | 0.00 | 0.18 | 0.05 | 87 | 1019.3 |
| 20260902180527 | 18 | 69 | 1.6 | 4.8 | 0.00 | 0.18 | 0.05 | 86 | 1019.3 |
| 20260902175527 | 18 | 301 | 3.2 | 8.0 | 0.00 | 0.18 | 0.05 | 87 | 1019.2 |
| 20260902174140 | 18 | 270 | 0.0 | 8.0 | 0.05 | 0.18 | 0.05 | 81 | 1018.8 |
| 20260902173526 | 18 | 287 | 6.4 | 14.5 | 0.05 | 0.18 | 0.05 | 78 | 1018.7 |
| 20260902172527 | 20 | 7 | 3.2 | 9.7 | 0.05 | 0.18 | 0.05 | 82 | 1018.0 |
| 20260902171140 | 20 | 133 | 3.2 | 6.4 | 0.05 | 0.18 | 0.05 | 82 | 1018.1 |
| 20260902170527 | 20 | 211 | 1.6 | 9.7 | 0.05 | 0.18 | 0.05 | 82 | 1018.1 |
| 20260902165527 | 19 | 246 | 4.8 | 12.9 | 0.05 | 0.18 | 0.05 | 84 | 1018.4 |
| 20260902164140 | 21 | 214 | 1.6 | 8.0 | 0.05 | 0.18 | 0.05 | 80 | 1017.5 |
| 20260902163527 | 21 | 268 | 4.8 | 6.4 | 0.00 | 0.13 | 0.00 | 84 | 1017.4 |
| 20260902162527 | 21 | 229 | 3.2 | 9.7 | 0.00 | 0.13 | 0.00 | 83 | 1017.7 |
| 20260902161140 | 22 | 218 | 1.6 | 8.0 | 0.00 | 0.13 | 0.00 | 77 | 1017.0 |
| 20260902160526 | 23 | 202 | 3.2 | 8.0 | 0.00 | 0.13 | 0.00 | 70 | 1016.8 |
| 20260902155527 | 23 | 197 | 3.2 | 9.7 | 0.00 | 0.13 | 0.00 | 66 | 1016.7 |
| 20260902154141 | 23 | 177 | 3.2 | 8.0 | 0.00 | 0.13 | 0.00 | 64 | 1016.7 |
| 20260902153527 | 24 | 115 | 4.8 | 9.7 | 0.00 | 0.13 | 0.00 | 59 | 1016.5 |
| 20260902152526 | 25 | 170 | 6.4 | 11.3 | 0.00 | 0.13 | 0.00 | 60 | 1016.4 |
| 20260902151140 | 25 | 171 | 6.4 | 11.3 | 0.00 | 0.13 | 0.00 | 60 | 1016.4 |
| 20260902150527 | 25 | 150 | 6.4 | 14.5 | 0.00 | 0.13 | 0.00 | 60 | 1016.4 |
| 20260902145527 | 25 | 172 | 6.4 | 12.9 | 0.00 | 0.13 | 0.00 | 59 | 1016.5 |
| 20260902144140 | 25 | 167 | 4.8 | 9.7 | 0.00 | 0.13 | 0.00 | 60 | 1016.4 |
| 20260902143526 | 25 | 161 | 4.8 | 11.3 | 0.00 | 0.13 | 0.00 | 56 | 1016.6 |
| 20260902142527 | 25 | 177 | 3.2 | 8.0 | 0.00 | 0.13 | 0.00 | 57 | 1016.9 |
| 20260902141140 | 25 | 153 | 3.2 | 9.7 | 0.00 | 0.13 | 0.00 | 54 | 1017.0 |
| 20260902140527 | 24 | 136 | 4.8 | 9.7 | 0.00 | 0.13 | 0.00 | 55 | 1017.1 |
| 20260902135527 | 24 | 150 | 4.8 | 12.9 | 0.00 | 0.13 | 0.00 | 57 | 1017.2 |
| 20260902134138 | 24 | 153 | 4.8 | 9.7 | 0.00 | 0.13 | 0.00 | 58 | 1017.2 |
| 20260902133527 | 24 | 174 | 3.2 | 9.7 | 0.00 | 0.13 | 0.00 | 59 | 1017.4 |
| 20260902132527 | 24 | 172 | 6.4 | 11.3 | 0.00 | 0.13 | 0.00 | 58 | 1017.4 |
| 20260902131140 | 24 | 183 | 4.8 | 11.3 | 0.00 | 0.13 | 0.00 | 57 | 1017.6 |
| 20260902130527 | 24 | 153 | 6.4 | 12.9 | 0.00 | 0.13 | 0.00 | 57 | 1017.7 |
| 20260902125527 | 24 | 161 | 6.4 | 14.5 | 0.00 | 0.13 | 0.00 | 57 | 1017.7 |
| 20260902124139 | 23 | 162 | 6.4 | 14.5 | 0.00 | 0.13 | 0.00 | 59 | 1017.9 |
| 20260902123527 | 23 | 162 | 6.4 | 14.5 | 0.00 | 0.13 | 0.00 | 58 | 1018.3 |
| 20260902122527 | 23 | 175 | 4.8 | 12.9 | 0.00 | 0.13 | 0.00 | 59 | 1018.4 |
| 20260902121140 | 23 | 172 | 6.4 | 17.7 | 0.00 | 0.13 | 0.00 | 59 | 1018.5 |
| 20260902120526 | 23 | 179 | 6.4 | 12.9 | 0.00 | 0.13 | 0.00 | 60 | 1018.7 |
| 20260902115526 | 23 | 174 | 6.4 | 14.5 | 0.00 | 0.13 | 0.00 | 61 | 1018.7 |
| 20260902114140 | 23 | 164 | 8.0 | 16.1 | 0.00 | 0.13 | 0.00 | 63 | 1018.9 |
| 20260902113527 | 23 | 178 | 4.8 | 11.3 | 0.00 | 0.13 | 0.00 | 59 | 1019.2 |
| 20260902112527 | 23 | 172 | 4.8 | 14.5 | 0.00 | 0.13 | 0.00 | 56 | 1019.2 |
| 20260902111140 | 23 | 181 | 4.8 | 12.9 | 0.00 | 0.13 | 0.00 | 56 | 1019.6 |
| 20260902110527 | 22 | 244 | 3.2 | 8.0 | 0.00 | 0.13 | 0.00 | 57 | 1019.9 |
| 20260902105526 | 22 | 192 | 1.6 | 9.7 | 0.00 | 0.13 | 0.00 | 56 | 1020.0 |
| 20260902104140 | 22 | 238 | 3.2 | 8.0 | 0.00 | 0.13 | 0.00 | 56 | 1020.2 |
| 20260902103527 | 22 | 256 | 3.2 | 8.0 | 0.00 | 0.13 | 0.00 | 61 | 1020.4 |
| 20260902102526 | 22 | 199 | 3.2 | 9.7 | 0.00 | 0.13 | 0.00 | 62 | 1020.5 |
| 20260902101140 | 22 | 183 | 3.2 | 8.0 | 0.00 | 0.13 | 0.00 | 65 | 1020.6 |